sensor_id;sensor_type;location;lat;lon;timestamp;pressure;altitude;pressure_sealevel;temperature;humidity
17072;BME280;7731;50.720;6.912;2022-12-29T00:01:11;98978.34;;;10.07;100.00
17072;BME280;7731;50.720;6.912;2022-12-29T00:03:41;98971.06;;;10.13;100.00
17072;BME280;7731;50.720;6.912;2022-12-29T00:06:12;98970.25;;;10.13;100.00
17072;BME280;7731;50.720;6.912;2022-12-29T00:08:42;98968.41;;;10.02;100.00
17072;BME280;7731;50.720;6.912;2022-12-29T00:11:16;98966.75;;;10.01;100.00
17072;BME280;7731;50.720;6.912;2022-12-29T00:13:48;98953.63;;;10.31;100.00
17072;BME280;7731;50.720;6.912;2022-12-29T00:16:37;98954.34;;;10.21;100.00
17072;BME280;7731;50.720;6.912;2022-12-29T00:19:07;98955.47;;;10.29;100.00
17072;BME280;7731;50.720;6.912;2022-12-29T00:21:58;98958.97;;;10.28;100.00
17072;BME280;7731;50.720;6.912;2022-12-29T00:24:41;98958.16;;;10.28;100.00
17072;BME280;7731;50.720;6.912;2022-12-29T00:27:24;98960.22;;;10.35;100.00
17072;BME280;7731;50.720;6.912;2022-12-29T00:30:11;98949.00;;;10.36;100.00
17072;BME280;7731;50.720;6.912;2022-12-29T00:32:56;98949.13;;;10.35;100.00
17072;BME280;7731;50.720;6.912;2022-12-29T00:35:47;98936.59;;;10.43;100.00
17072;BME280;7731;50.720;6.912;2022-12-29T00:38:21;98932.50;;;10.41;100.00
17072;BME280;7731;50.720;6.912;2022-12-29T00:41:04;98920.34;;;10.43;100.00
17072;BME280;7731;50.720;6.912;2022-12-29T00:43:47;98927.13;;;10.57;100.00
17072;BME280;7731;50.720;6.912;2022-12-29T00:46:29;98924.69;;;10.55;100.00
17072;BME280;7731;50.720;6.912;2022-12-29T00:49:03;98940.91;;;10.56;100.00
17072;BME280;7731;50.720;6.912;2022-12-29T00:51:46;98942.75;;;10.53;100.00
17072;BME280;7731;50.720;6.912;2022-12-29T00:54:17;98950.31;;;10.68;100.00
17072;BME280;7731;50.720;6.912;2022-12-29T00:56:49;98956.31;;;10.56;100.00
17072;BME280;7731;50.720;6.912;2022-12-29T00:59:20;98940.69;;;10.59;100.00
17072;BME280;7731;50.720;6.912;2022-12-29T01:01:52;98940.91;;;10.56;100.00
17072;BME280;7731;50.720;6.912;2022-12-29T01:04:26;98935.56;;;10.46;100.00
17072;BME280;7731;50.720;6.912;2022-12-29T01:06:56;98944.06;;;10.59;100.00
17072;BME280;7731;50.720;6.912;2022-12-29T01:09:27;98932.88;;;10.60;100.00
17072;BME280;7731;50.720;6.912;2022-12-29T01:12:10;98928.34;;;10.64;100.00
17072;BME280;7731;50.720;6.912;2022-12-29T01:14:41;98940.25;;;10.65;100.00
17072;BME280;7731;50.720;6.912;2022-12-29T01:17:11;98944.81;;;10.61;100.00
17072;BME280;7731;50.720;6.912;2022-12-29T01:19:44;98928.13;;;10.67;100.00
17072;BME280;7731;50.720;6.912;2022-12-29T01:22:14;98927.28;;;10.79;100.00
17072;BME280;7731;50.720;6.912;2022-12-29T01:24:44;98927.28;;;10.79;100.00
17072;BME280;7731;50.720;6.912;2022-12-29T01:27:14;98934.91;;;10.68;100.00
17072;BME280;7731;50.720;6.912;2022-12-29T01:29:44;98924.03;;;10.64;100.00
17072;BME280;7731;50.720;6.912;2022-12-29T01:32:14;98938.41;;;10.67;100.00
17072;BME280;7731;50.720;6.912;2022-12-29T01:34:47;98938.91;;;10.72;100.00
17072;BME280;7731;50.720;6.912;2022-12-29T01:37:17;98932.50;;;10.78;99.19
17072;BME280;7731;50.720;6.912;2022-12-29T01:39:48;98930.56;;;10.81;98.58
17072;BME280;7731;50.720;6.912;2022-12-29T01:42:23;98929.72;;;10.81;97.43
17072;BME280;7731;50.720;6.912;2022-12-29T01:44:56;98920.50;;;10.78;98.13
17072;BME280;7731;50.720;6.912;2022-12-29T01:47:34;98919.50;;;10.68;98.99
17072;BME280;7731;50.720;6.912;2022-12-29T01:50:15;98927.34;;;10.53;99.73
17072;BME280;7731;50.720;6.912;2022-12-29T01:52:54;98916.44;;;10.63;98.97
17072;BME280;7731;50.720;6.912;2022-12-29T01:55:29;98921.69;;;10.48;99.97
17072;BME280;7731;50.720;6.912;2022-12-29T01:58:04;98919.44;;;10.44;99.55
17072;BME280;7731;50.720;6.912;2022-12-29T02:00:37;98920.03;;;10.47;99.25
17072;BME280;7731;50.720;6.912;2022-12-29T02:03:08;98903.00;;;10.46;99.59
17072;BME280;7731;50.720;6.912;2022-12-29T02:05:51;98898.59;;;10.48;99.54
17072;BME280;7731;50.720;6.912;2022-12-29T02:08:27;98892.13;;;10.43;99.69
17072;BME280;7731;50.720;6.912;2022-12-29T02:11:01;98896.66;;;10.39;100.00
17072;BME280;7731;50.720;6.912;2022-12-29T02:13:32;98881.84;;;10.30;100.00
17072;BME280;7731;50.720;6.912;2022-12-29T02:16:17;98878.78;;;10.25;100.00
17072;BME280;7731;50.720;6.912;2022-12-29T02:19:00;98865.13;;;10.11;100.00
17072;BME280;7731;50.720;6.912;2022-12-29T02:22:02;98864.72;;;10.17;100.00
17072;BME280;7731;50.720;6.912;2022-12-29T02:31:45;98864.75;;;10.05;100.00
17072;BME280;7731;50.720;6.912;2022-12-29T02:34:26;98871.50;;;10.06;100.00
17072;BME280;7731;50.720;6.912;2022-12-29T02:37:09;98865.88;;;10.00;100.00
17072;BME280;7731;50.720;6.912;2022-12-29T02:39:53;98858.75;;;10.04;100.00
17072;BME280;7731;50.720;6.912;2022-12-29T02:42:35;98865.25;;;9.97;100.00
17072;BME280;7731;50.720;6.912;2022-12-29T02:45:15;98868.31;;;10.02;100.00
17072;BME280;7731;50.720;6.912;2022-12-29T02:48:00;98869.88;;;10.05;100.00
17072;BME280;7731;50.720;6.912;2022-12-29T02:50:38;98862.66;;;10.10;100.00
17072;BME280;7731;50.720;6.912;2022-12-29T02:53:14;98862.78;;;10.08;100.00
17072;BME280;7731;50.720;6.912;2022-12-29T02:56:06;98862.03;;;10.19;100.00
17072;BME280;7731;50.720;6.912;2022-12-29T02:58:33;98861.66;;;10.12;100.00
17072;BME280;7731;50.720;6.912;2022-12-29T03:01:24;98866.56;;;10.15;100.00
17072;BME280;7731;50.720;6.912;2022-12-29T03:04:22;98863.28;;;10.26;100.00
17072;BME280;7731;50.720;6.912;2022-12-29T03:07:06;98857.72;;;10.19;100.00
17072;BME280;7731;50.720;6.912;2022-12-29T03:09:49;98848.06;;;10.36;100.00
17072;BME280;7731;50.720;6.912;2022-12-29T03:12:30;98842.84;;;10.38;100.00
17072;BME280;7731;50.720;6.912;2022-12-29T03:15:23;98843.88;;;10.35;100.00
17072;BME280;7731;50.720;6.912;2022-12-29T03:18:20;98849.09;;;10.46;100.00
17072;BME280;7731;50.720;6.912;2022-12-29T03:21:00;98846.41;;;10.48;100.00
17072;BME280;7731;50.720;6.912;2022-12-29T03:23:33;98842.09;;;10.48;100.00
17072;BME280;7731;50.720;6.912;2022-12-29T03:26:10;98857.06;;;10.54;100.00
17072;BME280;7731;50.720;6.912;2022-12-29T03:28:50;98844.75;;;10.60;100.00
17072;BME280;7731;50.720;6.912;2022-12-29T03:31:25;98840.03;;;10.53;100.00
17072;BME280;7731;50.720;6.912;2022-12-29T03:33:56;98832.34;;;10.53;100.00
17072;BME280;7731;50.720;6.912;2022-12-29T03:36:42;98845.78;;;10.57;100.00
17072;BME280;7731;50.720;6.912;2022-12-29T03:39:14;98841.00;;;10.64;100.00
17072;BME280;7731;50.720;6.912;2022-12-29T03:41:45;98840.63;;;10.57;100.00
17072;BME280;7731;50.720;6.912;2022-12-29T03:44:16;98849.88;;;10.60;100.00
17072;BME280;7731;50.720;6.912;2022-12-29T03:46:46;98842.59;;;10.53;100.00
17072;BME280;7731;50.720;6.912;2022-12-29T03:49:17;98844.97;;;10.57;100.00
17072;BME280;7731;50.720;6.912;2022-12-29T03:51:50;98833.53;;;10.61;100.00
17072;BME280;7731;50.720;6.912;2022-12-29T03:54:20;98833.31;;;10.64;100.00
17072;BME280;7731;50.720;6.912;2022-12-29T03:56:50;98834.19;;;10.76;100.00
17072;BME280;7731;50.720;6.912;2022-12-29T03:59:21;98829.16;;;10.74;100.00
17072;BME280;7731;50.720;6.912;2022-12-29T04:01:51;98822.56;;;10.59;100.00
17072;BME280;7731;50.720;6.912;2022-12-29T04:04:22;98826.88;;;10.58;100.00
17072;BME280;7731;50.720;6.912;2022-12-29T04:06:55;98827.69;;;10.59;100.00
17072;BME280;7731;50.720;6.912;2022-12-29T04:09:25;98807.34;;;10.56;100.00
17072;BME280;7731;50.720;6.912;2022-12-29T04:11:56;98819.63;;;10.39;100.00
17072;BME280;7731;50.720;6.912;2022-12-29T04:14:27;98812.63;;;10.28;100.00
17072;BME280;7731;50.720;6.912;2022-12-29T04:16:57;98815.81;;;10.32;100.00
17072;BME280;7731;50.720;6.912;2022-12-29T04:19:29;98818.47;;;10.30;100.00
17072;BME280;7731;50.720;6.912;2022-12-29T04:22:02;98816.66;;;10.32;100.00
17072;BME280;7731;50.720;6.912;2022-12-29T04:24:33;98809.06;;;10.31;100.00
17072;BME280;7731;50.720;6.912;2022-12-29T04:27:04;98794.19;;;10.23;100.00
17072;BME280;7731;50.720;6.912;2022-12-29T04:29:34;98808.84;;;10.21;100.00
17072;BME280;7731;50.720;6.912;2022-12-29T04:32:04;98804.78;;;10.18;100.00
17072;BME280;7731;50.720;6.912;2022-12-29T04:34:42;98789.31;;;10.31;100.00
17072;BME280;7731;50.720;6.912;2022-12-29T04:37:14;98777.63;;;10.40;100.00
17072;BME280;7731;50.720;6.912;2022-12-29T04:39:44;98777.31;;;10.32;100.00
17072;BME280;7731;50.720;6.912;2022-12-29T04:42:15;98785.44;;;10.39;100.00
17072;BME280;7731;50.720;6.912;2022-12-29T04:44:45;98785.50;;;10.50;100.00
17072;BME280;7731;50.720;6.912;2022-12-29T04:47:15;98786.50;;;10.47;100.00
17072;BME280;7731;50.720;6.912;2022-12-29T04:49:46;98802.53;;;10.51;100.00
17072;BME280;7731;50.720;6.912;2022-12-29T04:52:19;98805.72;;;10.54;99.11
17072;BME280;7731;50.720;6.912;2022-12-29T04:54:49;98804.16;;;10.52;99.54
17072;BME280;7731;50.720;6.912;2022-12-29T04:57:20;98794.44;;;10.44;100.00
17072;BME280;7731;50.720;6.912;2022-12-29T04:59:52;98804.00;;;10.42;100.00
17072;BME280;7731;50.720;6.912;2022-12-29T05:02:23;98808.66;;;10.37;100.00
17072;BME280;7731;50.720;6.912;2022-12-29T05:04:53;98794.06;;;10.25;100.00
17072;BME280;7731;50.720;6.912;2022-12-29T05:07:28;98788.03;;;10.13;100.00
17072;BME280;7731;50.720;6.912;2022-12-29T05:10:00;98798.19;;;10.14;100.00
17072;BME280;7731;50.720;6.912;2022-12-29T05:12:31;98795.84;;;10.11;100.00
17072;BME280;7731;50.720;6.912;2022-12-29T05:15:09;98787.66;;;10.06;100.00
17072;BME280;7731;50.720;6.912;2022-12-29T05:17:39;98800.06;;;10.12;100.00
17072;BME280;7731;50.720;6.912;2022-12-29T05:20:11;98793.06;;;10.14;100.00
17072;BME280;7731;50.720;6.912;2022-12-29T05:22:46;98810.00;;;10.04;100.00
17072;BME280;7731;50.720;6.912;2022-12-29T05:25:18;98828.50;;;9.96;100.00
17072;BME280;7731;50.720;6.912;2022-12-29T05:27:48;98826.97;;;10.07;100.00
17072;BME280;7731;50.720;6.912;2022-12-29T05:30:18;98838.97;;;10.06;100.00
17072;BME280;7731;50.720;6.912;2022-12-29T05:32:51;98834.72;;;10.18;100.00
17072;BME280;7731;50.720;6.912;2022-12-29T05:35:23;98845.84;;;10.18;100.00
17072;BME280;7731;50.720;6.912;2022-12-29T05:38:01;98847.16;;;10.37;100.00
17072;BME280;7731;50.720;6.912;2022-12-29T05:40:31;98847.16;;;10.37;100.00
17072;BME280;7731;50.720;6.912;2022-12-29T05:43:01;98851.56;;;10.35;100.00
17072;BME280;7731;50.720;6.912;2022-12-29T05:45:36;98869.22;;;10.27;100.00
17072;BME280;7731;50.720;6.912;2022-12-29T05:48:06;98871.88;;;10.38;100.00
17072;BME280;7731;50.720;6.912;2022-12-29T05:50:36;98861.41;;;10.41;100.00
17072;BME280;7731;50.720;6.912;2022-12-29T05:53:12;98866.97;;;10.35;100.00
17072;BME280;7731;50.720;6.912;2022-12-29T05:55:43;98868.19;;;10.16;100.00
17072;BME280;7731;50.720;6.912;2022-12-29T05:58:15;98873.34;;;10.04;100.00
17072;BME280;7731;50.720;6.912;2022-12-29T06:00:46;98880.13;;;9.92;100.00
17072;BME280;7731;50.720;6.912;2022-12-29T06:03:17;98857.97;;;9.91;100.00
17072;BME280;7731;50.720;6.912;2022-12-29T06:05:49;98864.34;;;9.72;100.00
17072;BME280;7731;50.720;6.912;2022-12-29T06:08:22;98866.59;;;9.77;100.00
17072;BME280;7731;50.720;6.912;2022-12-29T06:10:53;98865.88;;;9.88;100.00
17072;BME280;7731;50.720;6.912;2022-12-29T06:13:26;98873.78;;;9.85;100.00
17072;BME280;7731;50.720;6.912;2022-12-29T06:15:58;98888.75;;;9.91;100.00
17072;BME280;7731;50.720;6.912;2022-12-29T06:18:30;98885.66;;;9.86;100.00
17072;BME280;7731;50.720;6.912;2022-12-29T06:21:01;98895.50;;;9.92;100.00
17072;BME280;7731;50.720;6.912;2022-12-29T06:23:36;98886.50;;;9.99;100.00
17072;BME280;7731;50.720;6.912;2022-12-29T06:26:06;98872.94;;;9.97;100.00
17072;BME280;7731;50.720;6.912;2022-12-29T06:28:37;98869.25;;;10.01;100.00
17072;BME280;7731;50.720;6.912;2022-12-29T06:31:09;98865.75;;;10.02;100.00
17072;BME280;7731;50.720;6.912;2022-12-29T06:33:42;98880.75;;;9.95;100.00
17072;BME280;7731;50.720;6.912;2022-12-29T06:36:16;98872.00;;;9.98;100.00
17072;BME280;7731;50.720;6.912;2022-12-29T06:38:54;98879.72;;;9.98;100.00
17072;BME280;7731;50.720;6.912;2022-12-29T06:41:24;98888.84;;;10.02;100.00
17072;BME280;7731;50.720;6.912;2022-12-29T06:43:58;98898.00;;;10.06;100.00
17072;BME280;7731;50.720;6.912;2022-12-29T06:46:30;98902.72;;;10.12;100.00
17072;BME280;7731;50.720;6.912;2022-12-29T06:49:03;98906.59;;;10.05;100.00
17072;BME280;7731;50.720;6.912;2022-12-29T06:51:33;98909.69;;;9.97;100.00
17072;BME280;7731;50.720;6.912;2022-12-29T06:54:08;98903.00;;;9.95;100.00
17072;BME280;7731;50.720;6.912;2022-12-29T06:56:38;98900.84;;;9.89;100.00
17072;BME280;7731;50.720;6.912;2022-12-29T06:59:09;98903.09;;;9.93;100.00
17072;BME280;7731;50.720;6.912;2022-12-29T07:01:40;98895.50;;;9.92;100.00
17072;BME280;7731;50.720;6.912;2022-12-29T07:04:15;98875.41;;;9.86;100.00
17072;BME280;7731;50.720;6.912;2022-12-29T07:06:48;98890.59;;;9.89;100.00
17072;BME280;7731;50.720;6.912;2022-12-29T07:09:21;98905.56;;;9.82;100.00
17072;BME280;7731;50.720;6.912;2022-12-29T07:11:54;98883.63;;;9.91;100.00
17072;BME280;7731;50.720;6.912;2022-12-29T07:14:24;98871.53;;;9.80;100.00
17072;BME280;7731;50.720;6.912;2022-12-29T07:16:54;98889.97;;;9.72;100.00
17072;BME280;7731;50.720;6.912;2022-12-29T07:19:24;98890.38;;;9.66;100.00
17072;BME280;7731;50.720;6.912;2022-12-29T07:21:55;98914.38;;;9.65;100.00
17072;BME280;7731;50.720;6.912;2022-12-29T07:24:27;98913.38;;;9.80;100.00
17072;BME280;7731;50.720;6.912;2022-12-29T07:27:00;98925.88;;;9.85;100.00
17072;BME280;7731;50.720;6.912;2022-12-29T07:29:37;98934.50;;;9.84;100.00
17072;BME280;7731;50.720;6.912;2022-12-29T07:32:09;98938.63;;;9.87;100.00
17072;BME280;7731;50.720;6.912;2022-12-29T07:34:41;98942.41;;;9.81;100.00
17072;BME280;7731;50.720;6.912;2022-12-29T07:37:16;98949.88;;;9.71;100.00
17072;BME280;7731;50.720;6.912;2022-12-29T07:39:49;98956.56;;;9.87;100.00
17072;BME280;7731;50.720;6.912;2022-12-29T07:42:19;98958.94;;;9.90;100.00
17072;BME280;7731;50.720;6.912;2022-12-29T07:44:53;98956.06;;;9.81;100.00
17072;BME280;7731;50.720;6.912;2022-12-29T07:47:27;98965.28;;;9.84;100.00
17072;BME280;7731;50.720;6.912;2022-12-29T07:50:02;98974.72;;;9.83;100.00
17072;BME280;7731;50.720;6.912;2022-12-29T07:52:32;98979.47;;;9.90;100.00
17072;BME280;7731;50.720;6.912;2022-12-29T07:55:09;98976.19;;;9.88;100.00
17072;BME280;7731;50.720;6.912;2022-12-29T07:57:40;98988.91;;;9.89;100.00
17072;BME280;7731;50.720;6.912;2022-12-29T08:00:12;98988.06;;;9.89;100.00
17072;BME280;7731;50.720;6.912;2022-12-29T08:02:43;98994.84;;;9.90;100.00
17072;BME280;7731;50.720;6.912;2022-12-29T08:05:13;98989.22;;;9.85;100.00
17072;BME280;7731;50.720;6.912;2022-12-29T08:07:45;98980.78;;;9.82;100.00
17072;BME280;7731;50.720;6.912;2022-12-29T08:10:19;98989.44;;;9.94;100.00
17072;BME280;7731;50.720;6.912;2022-12-29T08:12:51;98994.84;;;9.90;100.00
17072;BME280;7731;50.720;6.912;2022-12-29T08:15:21;99001.63;;;9.91;100.00
17072;BME280;7731;50.720;6.912;2022-12-29T08:17:58;99006.03;;;9.89;100.00
17072;BME280;7731;50.720;6.912;2022-12-29T08:20:28;98995.91;;;10.00;100.00
17072;BME280;7731;50.720;6.912;2022-12-29T08:22:58;98998.38;;;10.01;100.00
17072;BME280;7731;50.720;6.912;2022-12-29T08:25:31;99009.44;;;10.02;100.00
17072;BME280;7731;50.720;6.912;2022-12-29T08:28:03;99000.22;;;10.12;100.00
17072;BME280;7731;50.720;6.912;2022-12-29T08:30:38;99007.31;;;10.22;100.00
17072;BME280;7731;50.720;6.912;2022-12-29T08:33:16;99009.75;;;10.10;100.00
17072;BME280;7731;50.720;6.912;2022-12-29T08:35:47;99013.69;;;10.16;100.00
17072;BME280;7731;50.720;6.912;2022-12-29T08:38:18;99004.88;;;10.20;100.00
17072;BME280;7731;50.720;6.912;2022-12-29T08:40:51;99010.09;;;10.18;100.00
17072;BME280;7731;50.720;6.912;2022-12-29T08:43:21;99008.34;;;10.32;100.00
17072;BME280;7731;50.720;6.912;2022-12-29T08:45:52;99020.78;;;10.38;100.00
17072;BME280;7731;50.720;6.912;2022-12-29T08:48:23;99011.16;;;10.42;98.81
17072;BME280;7731;50.720;6.912;2022-12-29T08:50:53;98998.00;;;10.33;96.79
17072;BME280;7731;50.720;6.912;2022-12-29T08:53:24;99005.00;;;10.57;96.10
17072;BME280;7731;50.720;6.912;2022-12-29T08:56:01;99012.16;;;10.52;97.78
17072;BME280;7731;50.720;6.912;2022-12-29T08:58:32;99031.28;;;10.61;96.22
17072;BME280;7731;50.720;6.912;2022-12-29T09:01:03;99031.72;;;10.67;94.37
17072;BME280;7731;50.720;6.912;2022-12-29T09:03:35;99037.25;;;10.48;93.81
17072;BME280;7731;50.720;6.912;2022-12-29T09:06:25;99040.94;;;10.44;94.97
17072;BME280;7731;50.720;6.912;2022-12-29T09:08:58;99041.88;;;10.43;93.96
17072;BME280;7731;50.720;6.912;2022-12-29T09:11:31;99044.38;;;10.30;93.86
17072;BME280;7731;50.720;6.912;2022-12-29T09:14:02;99044.22;;;10.33;93.56
17072;BME280;7731;50.720;6.912;2022-12-29T09:16:35;99041.97;;;10.54;90.80
17072;BME280;7731;50.720;6.912;2022-12-29T09:19:05;99039.22;;;11.20;86.16
17072;BME280;7731;50.720;6.912;2022-12-29T09:21:36;99041.97;;;11.54;83.23
17072;BME280;7731;50.720;6.912;2022-12-29T09:24:06;99047.47;;;12.45;78.65
17072;BME280;7731;50.720;6.912;2022-12-29T09:26:40;99044.97;;;13.89;71.10
17072;BME280;7731;50.720;6.912;2022-12-29T09:29:13;99050.19;;;13.78;66.26
17072;BME280;7731;50.720;6.912;2022-12-29T09:31:45;99052.81;;;14.62;64.73
17072;BME280;7731;50.720;6.912;2022-12-29T09:34:16;99047.00;;;15.61;60.30
17072;BME280;7731;50.720;6.912;2022-12-29T09:36:46;99048.47;;;15.53;60.30
17072;BME280;7731;50.720;6.912;2022-12-29T09:39:18;99045.50;;;14.98;61.15
17072;BME280;7731;50.720;6.912;2022-12-29T09:42:02;99075.72;;;13.92;63.94
17072;BME280;7731;50.720;6.912;2022-12-29T09:44:54;99065.50;;;12.45;69.97
17072;BME280;7731;50.720;6.912;2022-12-29T09:47:29;99076.97;;;12.05;73.53
17072;BME280;7731;50.720;6.912;2022-12-29T09:50:08;99069.94;;;11.59;75.22
17072;BME280;7731;50.720;6.912;2022-12-29T09:52:48;99080.00;;;10.88;79.55
17072;BME280;7731;50.720;6.912;2022-12-29T09:55:33;99076.66;;;11.86;76.08
17072;BME280;7731;50.720;6.912;2022-12-29T09:58:16;99076.84;;;11.95;73.86
17072;BME280;7731;50.720;6.912;2022-12-29T10:00:58;99065.16;;;12.03;73.55
17072;BME280;7731;50.720;6.912;2022-12-29T10:03:45;99064.97;;;13.75;65.78
17072;BME280;7731;50.720;6.912;2022-12-29T10:06:23;99068.00;;;14.55;60.08
17072;BME280;7731;50.720;6.912;2022-12-29T10:09:04;99074.91;;;14.13;61.91
17072;BME280;7731;50.720;6.912;2022-12-29T10:12:19;99058.50;;;15.17;56.38
17072;BME280;7731;50.720;6.912;2022-12-29T10:15:12;99065.94;;;14.70;58.74
17072;BME280;7731;50.720;6.912;2022-12-29T10:17:53;99059.47;;;14.86;56.89
17072;BME280;7731;50.720;6.912;2022-12-29T10:20:35;99069.44;;;14.69;58.22
17072;BME280;7731;50.720;6.912;2022-12-29T10:23:25;99077.50;;;14.55;57.70
17072;BME280;7731;50.720;6.912;2022-12-29T10:26:01;99076.00;;;14.73;57.71
17072;BME280;7731;50.720;6.912;2022-12-29T10:28:38;99080.84;;;14.24;58.34
17072;BME280;7731;50.720;6.912;2022-12-29T10:31:20;99076.41;;;14.57;59.00
17072;BME280;7731;50.720;6.912;2022-12-29T10:33:59;99078.53;;;14.42;57.52
17072;BME280;7731;50.720;6.912;2022-12-29T10:36:38;99077.00;;;14.19;59.35
17072;BME280;7731;50.720;6.912;2022-12-29T10:39:21;99083.91;;;13.65;60.44
17072;BME280;7731;50.720;6.912;2022-12-29T10:42:01;99090.06;;;14.59;58.89
17072;BME280;7731;50.720;6.912;2022-12-29T10:44:34;99089.09;;;14.81;58.03
17072;BME280;7731;50.720;6.912;2022-12-29T10:47:17;99092.47;;;15.03;57.00
17072;BME280;7731;50.720;6.912;2022-12-29T10:49:49;99076.41;;;15.60;54.74
17072;BME280;7731;50.720;6.912;2022-12-29T10:52:27;99088.00;;;15.05;57.73
17072;BME280;7731;50.720;6.912;2022-12-29T10:55:02;99087.16;;;14.10;59.07
17072;BME280;7731;50.720;6.912;2022-12-29T10:57:37;99085.88;;;14.05;60.44
17072;BME280;7731;50.720;6.912;2022-12-29T11:00:16;99087.78;;;14.45;60.10
17072;BME280;7731;50.720;6.912;2022-12-29T11:03:12;99093.16;;;14.32;58.67
17072;BME280;7731;50.720;6.912;2022-12-29T11:05:53;99084.16;;;13.94;60.41
17072;BME280;7731;50.720;6.912;2022-12-29T11:08:32;99084.63;;;13.55;61.89
17072;BME280;7731;50.720;6.912;2022-12-29T11:11:07;99084.06;;;12.84;65.05
17072;BME280;7731;50.720;6.912;2022-12-29T11:13:49;99090.28;;;13.04;65.51
17072;BME280;7731;50.720;6.912;2022-12-29T11:16:29;99100.25;;;12.86;67.29
17072;BME280;7731;50.720;6.912;2022-12-29T11:19:05;99105.41;;;12.86;66.60
17072;BME280;7731;50.720;6.912;2022-12-29T11:21:38;99109.50;;;13.00;65.44
17072;BME280;7731;50.720;6.912;2022-12-29T11:24:22;99101.09;;;12.40;68.55
17072;BME280;7731;50.720;6.912;2022-12-29T11:26:55;99096.19;;;12.59;68.30
17072;BME280;7731;50.720;6.912;2022-12-29T11:29:39;99097.19;;;13.49;66.40
17072;BME280;7731;50.720;6.912;2022-12-29T11:32:16;99095.66;;;12.78;67.83
17072;BME280;7731;50.720;6.912;2022-12-29T11:34:57;99104.38;;;12.42;70.36
17072;BME280;7731;50.720;6.912;2022-12-29T11:37:32;99124.06;;;12.54;69.15
17072;BME280;7731;50.720;6.912;2022-12-29T11:40:16;99112.91;;;13.34;65.60
17072;BME280;7731;50.720;6.912;2022-12-29T11:42:51;99136.69;;;12.93;65.35
17072;BME280;7731;50.720;6.912;2022-12-29T11:45:24;99120.41;;;13.26;63.46
17072;BME280;7731;50.720;6.912;2022-12-29T11:48:01;99128.84;;;13.06;63.68
17072;BME280;7731;50.720;6.912;2022-12-29T11:50:41;99121.31;;;12.91;64.86
17072;BME280;7731;50.720;6.912;2022-12-29T11:53:19;99124.97;;;13.00;66.05
17072;BME280;7731;50.720;6.912;2022-12-29T11:55:54;99129.69;;;12.48;68.37
17072;BME280;7731;50.720;6.912;2022-12-29T11:58:29;99126.63;;;12.43;68.22
17072;BME280;7731;50.720;6.912;2022-12-29T12:01:04;99122.63;;;12.85;67.62
17072;BME280;7731;50.720;6.912;2022-12-29T12:03:45;99133.16;;;12.82;65.89
17072;BME280;7731;50.720;6.912;2022-12-29T12:06:21;99138.72;;;12.18;66.66
17072;BME280;7731;50.720;6.912;2022-12-29T12:08:56;99123.63;;;12.60;66.84
17072;BME280;7731;50.720;6.912;2022-12-29T12:11:34;99152.03;;;12.12;68.77
17072;BME280;7731;50.720;6.912;2022-12-29T12:14:17;99141.66;;;12.01;70.44
17072;BME280;7731;50.720;6.912;2022-12-29T12:16:54;99151.19;;;11.74;69.20
17072;BME280;7731;50.720;6.912;2022-12-29T12:19:36;99157.84;;;11.66;71.25
17072;BME280;7731;50.720;6.912;2022-12-29T12:22:20;99151.88;;;11.52;72.51
17072;BME280;7731;50.720;6.912;2022-12-29T12:24:59;99164.84;;;11.38;73.26
17072;BME280;7731;50.720;6.912;2022-12-29T12:27:41;99163.66;;;11.31;74.44
17072;BME280;7731;50.720;6.912;2022-12-29T12:30:16;99164.84;;;11.38;73.92
17072;BME280;7731;50.720;6.912;2022-12-29T12:32:55;99178.88;;;11.34;75.46
17072;BME280;7731;50.720;6.912;2022-12-29T12:35:41;99175.38;;;11.09;75.33
17072;BME280;7731;50.720;6.912;2022-12-29T12:38:30;99167.78;;;11.07;75.85
17072;BME280;7731;50.720;6.912;2022-12-29T12:41:11;99170.75;;;11.14;75.49
17072;BME280;7731;50.720;6.912;2022-12-29T12:43:52;99166.50;;;11.39;75.59
17072;BME280;7731;50.720;6.912;2022-12-29T12:46:49;99171.25;;;11.19;74.63
17072;BME280;7731;50.720;6.912;2022-12-29T12:49:45;99164.47;;;11.05;72.04
17072;BME280;7731;50.720;6.912;2022-12-29T12:52:31;99166.13;;;11.06;72.74
17072;BME280;7731;50.720;6.912;2022-12-29T12:55:38;99165.22;;;11.07;74.42
17072;BME280;7731;50.720;6.912;2022-12-29T12:58:25;99163.13;;;11.13;74.28
17072;BME280;7731;50.720;6.912;2022-12-29T13:01:20;99167.03;;;11.05;73.98
17072;BME280;7731;50.720;6.912;2022-12-29T13:04:37;99166.94;;;11.07;72.91
17072;BME280;7731;50.720;6.912;2022-12-29T13:07:26;99169.22;;;11.24;72.16
17072;BME280;7731;50.720;6.912;2022-12-29T13:10:21;99175.78;;;11.29;72.85
17072;BME280;7731;50.720;6.912;2022-12-29T13:15:53;99183.38;;;11.30;75.99
17072;BME280;7731;50.720;6.912;2022-12-29T13:18:50;99180.53;;;11.09;76.00
17072;BME280;7731;50.720;6.912;2022-12-29T13:21:37;99174.97;;;11.15;74.22
17072;BME280;7731;50.720;6.912;2022-12-29T13:24:27;99183.06;;;10.96;74.66
17072;BME280;7731;50.720;6.912;2022-12-29T13:27:13;99187.69;;;10.78;75.54
17072;BME280;7731;50.720;6.912;2022-12-29T13:29:57;99187.34;;;10.70;76.21
17072;BME280;7731;50.720;6.912;2022-12-29T13:32:46;99194.47;;;10.79;75.76
17072;BME280;7731;50.720;6.912;2022-12-29T13:35:52;99196.53;;;10.87;77.13
17072;BME280;7731;50.720;6.912;2022-12-29T13:38:31;99202.91;;;10.94;76.79
17072;BME280;7731;50.720;6.912;2022-12-29T13:41:24;99201.25;;;10.80;76.58
17072;BME280;7731;50.720;6.912;2022-12-29T13:44:00;99201.47;;;10.77;76.41
17072;BME280;7731;50.720;6.912;2022-12-29T13:46:39;99187.84;;;10.49;76.84
17072;BME280;7731;50.720;6.912;2022-12-29T13:49:16;99190.56;;;10.86;76.75
17072;BME280;7731;50.720;6.912;2022-12-29T13:51:51;99186.56;;;10.82;76.63
17072;BME280;7731;50.720;6.912;2022-12-29T13:54:40;99191.94;;;11.05;75.21
17072;BME280;7731;50.720;6.912;2022-12-29T13:57:31;99191.94;;;10.92;74.75
17072;BME280;7731;50.720;6.912;2022-12-29T14:00:14;99195.94;;;10.96;74.91
17072;BME280;7731;50.720;6.912;2022-12-29T14:03:23;99201.72;;;11.00;75.81
17072;BME280;7731;50.720;6.912;2022-12-29T14:06:16;99203.53;;;10.98;76.34
17072;BME280;7731;50.720;6.912;2022-12-29T14:08:48;99206.00;;;10.86;77.46